sensor_id;sensor_type;location;lat;lon;timestamp;P1;durP1;ratioP1;P2;durP2;ratioP2
72422;SDS011;60413;55.658;37.498;2022-12-07T00:01:32;5.60;;;1.90;;
72422;SDS011;60413;55.658;37.498;2022-12-07T00:04:01;3.63;;;1.70;;
72422;SDS011;60413;55.658;37.498;2022-12-07T00:06:32;6.50;;;2.30;;
72422;SDS011;60413;55.658;37.498;2022-12-07T00:09:06;7.18;;;3.10;;
72422;SDS011;60413;55.658;37.498;2022-12-07T00:11:35;3.92;;;2.22;;
72422;SDS011;60413;55.658;37.498;2022-12-07T00:14:02;5.32;;;1.90;;
72422;SDS011;60413;55.658;37.498;2022-12-07T00:16:32;4.70;;;2.40;;
72422;SDS011;60413;55.658;37.498;2022-12-07T00:18:59;3.67;;;2.20;;
72422;SDS011;60413;55.658;37.498;2022-12-07T00:21:26;6.25;;;2.88;;
72422;SDS011;60413;55.658;37.498;2022-12-07T00:23:54;3.83;;;1.88;;
72422;SDS011;60413;55.658;37.498;2022-12-07T00:26:25;4.25;;;2.20;;
72422;SDS011;60413;55.658;37.498;2022-12-07T00:28:54;5.03;;;1.80;;
72422;SDS011;60413;55.658;37.498;2022-12-07T00:31:23;10.68;;;2.75;;
72422;SDS011;60413;55.658;37.498;2022-12-07T00:33:50;3.90;;;2.40;;
72422;SDS011;60413;55.658;37.498;2022-12-07T00:36:20;4.13;;;2.13;;
72422;SDS011;60413;55.658;37.498;2022-12-07T00:38:48;10.23;;;2.80;;
72422;SDS011;60413;55.658;37.498;2022-12-07T00:41:15;5.03;;;2.30;;
72422;SDS011;60413;55.658;37.498;2022-12-07T00:43:43;7.20;;;2.58;;
72422;SDS011;60413;55.658;37.498;2022-12-07T00:46:11;6.93;;;2.25;;
72422;SDS011;60413;55.658;37.498;2022-12-07T00:48:37;10.65;;;3.17;;
72422;SDS011;60413;55.658;37.498;2022-12-07T00:51:04;7.13;;;2.00;;
72422;SDS011;60413;55.658;37.498;2022-12-07T00:53:34;4.15;;;1.92;;
72422;SDS011;60413;55.658;37.498;2022-12-07T00:56:07;7.88;;;2.22;;
72422;SDS011;60413;55.658;37.498;2022-12-07T00:58:36;4.10;;;1.98;;
72422;SDS011;60413;55.658;37.498;2022-12-07T01:01:03;5.47;;;2.30;;
72422;SDS011;60413;55.658;37.498;2022-12-07T01:03:31;8.18;;;2.25;;
72422;SDS011;60413;55.658;37.498;2022-12-07T01:05:57;4.63;;;2.15;;
72422;SDS011;60413;55.658;37.498;2022-12-07T01:08:24;4.32;;;2.08;;
72422;SDS011;60413;55.658;37.498;2022-12-07T01:11:04;5.68;;;2.25;;
72422;SDS011;60413;55.658;37.498;2022-12-07T01:13:33;7.25;;;2.63;;
72422;SDS011;60413;55.658;37.498;2022-12-07T01:16:00;4.18;;;2.42;;
72422;SDS011;60413;55.658;37.498;2022-12-07T01:18:30;5.55;;;2.60;;
72422;SDS011;60413;55.658;37.498;2022-12-07T01:21:05;10.10;;;2.45;;
72422;SDS011;60413;55.658;37.498;2022-12-07T01:23:36;6.32;;;2.78;;
72422;SDS011;60413;55.658;37.498;2022-12-07T01:26:05;4.72;;;2.47;;
72422;SDS011;60413;55.658;37.498;2022-12-07T01:28:35;2.70;;;1.55;;
72422;SDS011;60413;55.658;37.498;2022-12-07T01:31:03;7.30;;;2.58;;
72422;SDS011;60413;55.658;37.498;2022-12-07T01:33:32;7.38;;;2.80;;
72422;SDS011;60413;55.658;37.498;2022-12-07T01:36:08;10.00;;;2.55;;
72422;SDS011;60413;55.658;37.498;2022-12-07T01:38:38;4.25;;;2.15;;
72422;SDS011;60413;55.658;37.498;2022-12-07T01:41:04;4.28;;;1.90;;
72422;SDS011;60413;55.658;37.498;2022-12-07T01:43:31;3.65;;;2.30;;
72422;SDS011;60413;55.658;37.498;2022-12-07T01:45:58;6.40;;;2.47;;
72422;SDS011;60413;55.658;37.498;2022-12-07T01:48:32;7.90;;;2.90;;
72422;SDS011;60413;55.658;37.498;2022-12-07T01:51:04;7.35;;;2.78;;
72422;SDS011;60413;55.658;37.498;2022-12-07T01:53:37;5.47;;;2.15;;
72422;SDS011;60413;55.658;37.498;2022-12-07T01:56:08;7.65;;;3.17;;
72422;SDS011;60413;55.658;37.498;2022-12-07T01:58:37;5.88;;;2.00;;
72422;SDS011;60413;55.658;37.498;2022-12-07T02:01:03;7.18;;;2.65;;
72422;SDS011;60413;55.658;37.498;2022-12-07T02:03:39;4.88;;;2.58;;
72422;SDS011;60413;55.658;37.498;2022-12-07T02:06:13;3.25;;;1.60;;
72422;SDS011;60413;55.658;37.498;2022-12-07T02:08:44;3.92;;;2.50;;
72422;SDS011;60413;55.658;37.498;2022-12-07T02:11:14;4.82;;;2.00;;
72422;SDS011;60413;55.658;37.498;2022-12-07T02:13:41;11.35;;;2.80;;
72422;SDS011;60413;55.658;37.498;2022-12-07T02:16:22;4.03;;;1.63;;
72422;SDS011;60413;55.658;37.498;2022-12-07T02:30:44;3.88;;;1.85;;
72422;SDS011;60413;55.658;37.498;2022-12-07T02:33:17;4.75;;;2.13;;
72422;SDS011;60413;55.658;37.498;2022-12-07T02:38:45;6.85;;;2.85;;
72422;SDS011;60413;55.658;37.498;2022-12-07T02:44:18;4.40;;;2.47;;
72422;SDS011;60413;55.658;37.498;2022-12-07T02:46:50;7.15;;;2.67;;
72422;SDS011;60413;55.658;37.498;2022-12-07T02:49:23;5.25;;;2.35;;
72422;SDS011;60413;55.658;37.498;2022-12-07T02:51:54;6.75;;;2.47;;
72422;SDS011;60413;55.658;37.498;2022-12-07T02:54:21;4.65;;;2.10;;
72422;SDS011;60413;55.658;37.498;2022-12-07T02:56:52;8.07;;;2.63;;
72422;SDS011;60413;55.658;37.498;2022-12-07T03:18:58;7.57;;;2.38;;
72422;SDS011;60413;55.658;37.498;2022-12-07T03:21:41;6.13;;;2.30;;
72422;SDS011;60413;55.658;37.498;2022-12-07T03:24:11;4.65;;;1.70;;
72422;SDS011;60413;55.658;37.498;2022-12-07T03:26:43;5.80;;;2.17;;
72422;SDS011;60413;55.658;37.498;2022-12-07T03:29:25;6.32;;;2.53;;
72422;SDS011;60413;55.658;37.498;2022-12-07T03:32:01;11.68;;;2.50;;
72422;SDS011;60413;55.658;37.498;2022-12-07T03:34:33;4.75;;;2.20;;
72422;SDS011;60413;55.658;37.498;2022-12-07T03:37:53;4.45;;;2.60;;
72422;SDS011;60413;55.658;37.498;2022-12-07T03:40:05;11.45;;;4.30;;
72422;SDS011;60413;55.658;37.498;2022-12-07T03:42:38;4.28;;;2.17;;
72422;SDS011;60413;55.658;37.498;2022-12-07T03:45:05;5.20;;;2.47;;
72422;SDS011;60413;55.658;37.498;2022-12-07T03:47:33;6.95;;;2.53;;
72422;SDS011;60413;55.658;37.498;2022-12-07T03:50:06;6.45;;;2.28;;
72422;SDS011;60413;55.658;37.498;2022-12-07T03:52:44;6.50;;;2.83;;
72422;SDS011;60413;55.658;37.498;2022-12-07T03:55:20;5.78;;;2.35;;
72422;SDS011;60413;55.658;37.498;2022-12-07T03:58:00;5.68;;;2.30;;
72422;SDS011;60413;55.658;37.498;2022-12-07T04:00:30;7.78;;;2.55;;
72422;SDS011;60413;55.658;37.498;2022-12-07T04:02:59;7.13;;;2.40;;
72422;SDS011;60413;55.658;37.498;2022-12-07T04:05:28;11.73;;;2.90;;
72422;SDS011;60413;55.658;37.498;2022-12-07T04:07:54;4.60;;;2.22;;
72422;SDS011;60413;55.658;37.498;2022-12-07T04:10:22;8.45;;;2.80;;
72422;SDS011;60413;55.658;37.498;2022-12-07T04:12:49;3.22;;;1.80;;
72422;SDS011;60413;55.658;37.498;2022-12-07T04:15:15;5.32;;;2.03;;
72422;SDS011;60413;55.658;37.498;2022-12-07T04:17:41;4.18;;;1.95;;
72422;SDS011;60413;55.658;37.498;2022-12-07T04:20:08;5.35;;;2.75;;
72422;SDS011;60413;55.658;37.498;2022-12-07T04:22:35;4.28;;;2.20;;
72422;SDS011;60413;55.658;37.498;2022-12-07T04:25:01;5.20;;;2.35;;
72422;SDS011;60413;55.658;37.498;2022-12-07T04:27:27;8.02;;;3.22;;
72422;SDS011;60413;55.658;37.498;2022-12-07T04:29:53;6.53;;;2.58;;
72422;SDS011;60413;55.658;37.498;2022-12-07T04:32:21;8.40;;;2.95;;
72422;SDS011;60413;55.658;37.498;2022-12-07T04:34:47;7.22;;;2.90;;
72422;SDS011;60413;55.658;37.498;2022-12-07T04:37:16;5.55;;;1.73;;
72422;SDS011;60413;55.658;37.498;2022-12-07T04:39:43;3.53;;;1.77;;
72422;SDS011;60413;55.658;37.498;2022-12-07T04:42:10;3.50;;;2.25;;
72422;SDS011;60413;55.658;37.498;2022-12-07T04:44:36;5.60;;;1.77;;
72422;SDS011;60413;55.658;37.498;2022-12-07T04:47:03;4.70;;;2.28;;
72422;SDS011;60413;55.658;37.498;2022-12-07T04:49:31;5.93;;;2.17;;
72422;SDS011;60413;55.658;37.498;2022-12-07T04:51:58;5.57;;;2.25;;
72422;SDS011;60413;55.658;37.498;2022-12-07T04:54:24;6.28;;;2.53;;
72422;SDS011;60413;55.658;37.498;2022-12-07T04:56:50;3.42;;;1.90;;
72422;SDS011;60413;55.658;37.498;2022-12-07T04:59:16;4.88;;;2.42;;
72422;SDS011;60413;55.658;37.498;2022-12-07T05:01:43;5.75;;;2.20;;
72422;SDS011;60413;55.658;37.498;2022-12-07T05:04:09;4.75;;;2.10;;
72422;SDS011;60413;55.658;37.498;2022-12-07T05:06:35;4.90;;;2.67;;
72422;SDS011;60413;55.658;37.498;2022-12-07T05:09:02;4.45;;;1.85;;
72422;SDS011;60413;55.658;37.498;2022-12-07T05:11:29;9.43;;;3.40;;
72422;SDS011;60413;55.658;37.498;2022-12-07T05:14:08;5.75;;;2.03;;
72422;SDS011;60413;55.658;37.498;2022-12-07T05:16:34;9.15;;;2.00;;
72422;SDS011;60413;55.658;37.498;2022-12-07T05:19:00;6.85;;;2.85;;
72422;SDS011;60413;55.658;37.498;2022-12-07T05:21:26;6.10;;;2.50;;
72422;SDS011;60413;55.658;37.498;2022-12-07T05:23:53;4.18;;;1.70;;
72422;SDS011;60413;55.658;37.498;2022-12-07T05:26:19;7.25;;;2.95;;
72422;SDS011;60413;55.658;37.498;2022-12-07T05:28:49;4.80;;;1.95;;
72422;SDS011;60413;55.658;37.498;2022-12-07T05:31:16;6.25;;;3.63;;
72422;SDS011;60413;55.658;37.498;2022-12-07T05:33:45;7.55;;;3.17;;
72422;SDS011;60413;55.658;37.498;2022-12-07T05:36:13;7.47;;;2.80;;
72422;SDS011;60413;55.658;37.498;2022-12-07T05:38:40;5.22;;;2.53;;
72422;SDS011;60413;55.658;37.498;2022-12-07T05:41:07;11.18;;;3.88;;
72422;SDS011;60413;55.658;37.498;2022-12-07T05:43:54;4.43;;;2.15;;
72422;SDS011;60413;55.658;37.498;2022-12-07T05:46:21;8.55;;;3.65;;
72422;SDS011;60413;55.658;37.498;2022-12-07T05:48:47;4.68;;;2.40;;
72422;SDS011;60413;55.658;37.498;2022-12-07T05:51:13;5.43;;;3.15;;
72422;SDS011;60413;55.658;37.498;2022-12-07T05:53:39;7.28;;;2.25;;
72422;SDS011;60413;55.658;37.498;2022-12-07T05:56:05;4.78;;;2.38;;
72422;SDS011;60413;55.658;37.498;2022-12-07T05:58:31;8.50;;;3.10;;
72422;SDS011;60413;55.658;37.498;2022-12-07T06:01:15;4.03;;;2.05;;
72422;SDS011;60413;55.658;37.498;2022-12-07T06:03:41;7.97;;;3.03;;
72422;SDS011;60413;55.658;37.498;2022-12-07T06:06:07;5.53;;;2.65;;
72422;SDS011;60413;55.658;37.498;2022-12-07T06:08:33;6.85;;;2.38;;
72422;SDS011;60413;55.658;37.498;2022-12-07T06:14:38;9.93;;;3.08;;
72422;SDS011;60413;55.658;37.498;2022-12-07T06:17:07;5.20;;;2.42;;
72422;SDS011;60413;55.658;37.498;2022-12-07T06:19:51;7.25;;;2.72;;
72422;SDS011;60413;55.658;37.498;2022-12-07T06:22:35;11.30;;;3.15;;
72422;SDS011;60413;55.658;37.498;2022-12-07T06:25:01;8.75;;;3.55;;
72422;SDS011;60413;55.658;37.498;2022-12-07T06:27:27;6.07;;;3.17;;
72422;SDS011;60413;55.658;37.498;2022-12-07T06:29:53;6.40;;;2.67;;
72422;SDS011;60413;55.658;37.498;2022-12-07T06:32:20;5.85;;;3.03;;
72422;SDS011;60413;55.658;37.498;2022-12-07T06:34:46;6.28;;;2.75;;
72422;SDS011;60413;55.658;37.498;2022-12-07T06:37:15;6.07;;;3.13;;
72422;SDS011;60413;55.658;37.498;2022-12-07T06:39:44;6.80;;;3.10;;
72422;SDS011;60413;55.658;37.498;2022-12-07T06:42:19;7.65;;;3.55;;
72422;SDS011;60413;55.658;37.498;2022-12-07T06:44:45;10.75;;;3.47;;
72422;SDS011;60413;55.658;37.498;2022-12-07T06:47:12;6.57;;;3.13;;
72422;SDS011;60413;55.658;37.498;2022-12-07T06:49:40;6.15;;;2.95;;
72422;SDS011;60413;55.658;37.498;2022-12-07T06:52:07;11.38;;;4.57;;
72422;SDS011;60413;55.658;37.498;2022-12-07T06:54:35;7.38;;;3.00;;
72422;SDS011;60413;55.658;37.498;2022-12-07T06:57:01;7.85;;;3.08;;
72422;SDS011;60413;55.658;37.498;2022-12-07T06:59:27;7.95;;;3.00;;
72422;SDS011;60413;55.658;37.498;2022-12-07T07:01:54;9.23;;;4.25;;
72422;SDS011;60413;55.658;37.498;2022-12-07T07:04:22;6.53;;;3.30;;
72422;SDS011;60413;55.658;37.498;2022-12-07T07:06:50;10.25;;;4.05;;
72422;SDS011;60413;55.658;37.498;2022-12-07T07:09:16;8.13;;;3.75;;
72422;SDS011;60413;55.658;37.498;2022-12-07T07:14:48;6.30;;;2.72;;
72422;SDS011;60413;55.658;37.498;2022-12-07T07:17:14;13.25;;;3.63;;
72422;SDS011;60413;55.658;37.498;2022-12-07T07:19:43;12.15;;;3.50;;
72422;SDS011;60413;55.658;37.498;2022-12-07T07:22:12;6.95;;;2.72;;
72422;SDS011;60413;55.658;37.498;2022-12-07T07:24:38;6.47;;;2.92;;
72422;SDS011;60413;55.658;37.498;2022-12-07T07:27:05;7.68;;;3.72;;
72422;SDS011;60413;55.658;37.498;2022-12-07T07:29:32;9.60;;;3.95;;
72422;SDS011;60413;55.658;37.498;2022-12-07T07:31:59;8.75;;;3.20;;
72422;SDS011;60413;55.658;37.498;2022-12-07T07:38:27;13.93;;;4.90;;
72422;SDS011;60413;55.658;37.498;2022-12-07T07:41:01;9.95;;;2.97;;
72422;SDS011;60413;55.658;37.498;2022-12-07T07:43:28;10.63;;;4.10;;
72422;SDS011;60413;55.658;37.498;2022-12-07T07:45:58;10.93;;;4.32;;
72422;SDS011;60413;55.658;37.498;2022-12-07T07:48:27;14.95;;;3.10;;
72422;SDS011;60413;55.658;37.498;2022-12-07T07:50:54;11.27;;;4.15;;
72422;SDS011;60413;55.658;37.498;2022-12-07T07:53:20;10.73;;;4.13;;
72422;SDS011;60413;55.658;37.498;2022-12-07T07:55:57;11.88;;;4.40;;
72422;SDS011;60413;55.658;37.498;2022-12-07T08:02:42;9.40;;;3.63;;
72422;SDS011;60413;55.658;37.498;2022-12-07T08:05:09;8.38;;;3.88;;
72422;SDS011;60413;55.658;37.498;2022-12-07T08:11:45;6.20;;;2.80;;
72422;SDS011;60413;55.658;37.498;2022-12-07T08:14:25;6.45;;;3.55;;
72422;SDS011;60413;55.658;37.498;2022-12-07T08:17:40;5.25;;;2.85;;
72422;SDS011;60413;55.658;37.498;2022-12-07T08:20:35;8.40;;;4.23;;
72422;SDS011;60413;55.658;37.498;2022-12-07T08:23:34;8.18;;;3.92;;
72422;SDS011;60413;55.658;37.498;2022-12-07T08:26:04;9.05;;;3.10;;
72422;SDS011;60413;55.658;37.498;2022-12-07T08:32:22;8.45;;;3.65;;
72422;SDS011;60413;55.658;37.498;2022-12-07T08:35:22;7.18;;;3.03;;
72422;SDS011;60413;55.658;37.498;2022-12-07T08:37:59;8.68;;;3.83;;
72422;SDS011;60413;55.658;37.498;2022-12-07T08:40:27;9.43;;;3.47;;
72422;SDS011;60413;55.658;37.498;2022-12-07T09:00:04;10.85;;;4.13;;
72422;SDS011;60413;55.658;37.498;2022-12-07T09:07:24;14.13;;;3.72;;
72422;SDS011;60413;55.658;37.498;2022-12-07T09:09:51;7.93;;;3.88;;
72422;SDS011;60413;55.658;37.498;2022-12-07T09:12:32;10.13;;;3.70;;
72422;SDS011;60413;55.658;37.498;2022-12-07T09:15:00;6.45;;;3.13;;
72422;SDS011;60413;55.658;37.498;2022-12-07T09:17:35;7.22;;;2.85;;
72422;SDS011;60413;55.658;37.498;2022-12-07T09:20:04;11.70;;;3.47;;
72422;SDS011;60413;55.658;37.498;2022-12-07T09:22:38;15.43;;;4.53;;
72422;SDS011;60413;55.658;37.498;2022-12-07T09:25:18;14.13;;;5.38;;
72422;SDS011;60413;55.658;37.498;2022-12-07T09:27:59;6.00;;;2.95;;
72422;SDS011;60413;55.658;37.498;2022-12-07T09:30:26;5.05;;;2.72;;
72422;SDS011;60413;55.658;37.498;2022-12-07T09:33:02;6.57;;;2.95;;
72422;SDS011;60413;55.658;37.498;2022-12-07T09:35:38;6.03;;;3.40;;
72422;SDS011;60413;55.658;37.498;2022-12-07T09:38:21;7.70;;;3.03;;
72422;SDS011;60413;55.658;37.498;2022-12-07T09:41:06;8.55;;;3.60;;
72422;SDS011;60413;55.658;37.498;2022-12-07T09:43:40;7.80;;;2.85;;
72422;SDS011;60413;55.658;37.498;2022-12-07T09:46:18;7.47;;;3.03;;
72422;SDS011;60413;55.658;37.498;2022-12-07T09:48:55;8.68;;;3.30;;
72422;SDS011;60413;55.658;37.498;2022-12-07T09:54:25;11.50;;;3.80;;
72422;SDS011;60413;55.658;37.498;2022-12-07T09:57:15;10.18;;;3.63;;
72422;SDS011;60413;55.658;37.498;2022-12-07T10:00:03;7.57;;;3.45;;
72422;SDS011;60413;55.658;37.498;2022-12-07T10:02:37;14.27;;;3.50;;
72422;SDS011;60413;55.658;37.498;2022-12-07T10:05:58;7.35;;;3.45;;
72422;SDS011;60413;55.658;37.498;2022-12-07T10:08:40;7.47;;;3.15;;
72422;SDS011;60413;55.658;37.498;2022-12-07T10:11:16;7.82;;;3.17;;
72422;SDS011;60413;55.658;37.498;2022-12-07T10:14:10;11.05;;;4.57;;
72422;SDS011;60413;55.658;37.498;2022-12-07T10:16:58;5.22;;;2.78;;
72422;SDS011;60413;55.658;37.498;2022-12-07T10:19:31;8.18;;;3.83;;
72422;SDS011;60413;55.658;37.498;2022-12-07T10:22:26;6.88;;;2.97;;
72422;SDS011;60413;55.658;37.498;2022-12-07T10:25:26;7.50;;;3.05;;
72422;SDS011;60413;55.658;37.498;2022-12-07T10:28:10;4.93;;;2.38;;
72422;SDS011;60413;55.658;37.498;2022-12-07T10:30:48;6.85;;;3.38;;
72422;SDS011;60413;55.658;37.498;2022-12-07T10:37:41;8.77;;;3.33;;
72422;SDS011;60413;55.658;37.498;2022-12-07T10:40:35;13.02;;;3.92;;
72422;SDS011;60413;55.658;37.498;2022-12-07T10:43:33;11.10;;;4.47;;
72422;SDS011;60413;55.658;37.498;2022-12-07T10:54:55;9.27;;;3.35;;
72422;SDS011;60413;55.658;37.498;2022-12-07T10:57:56;9.55;;;4.30;;
72422;SDS011;60413;55.658;37.498;2022-12-07T11:01:12;6.15;;;3.15;;
72422;SDS011;60413;55.658;37.498;2022-12-07T11:39:11;5.90;;;3.28;;
72422;SDS011;60413;55.658;37.498;2022-12-07T11:41:49;8.07;;;3.17;;
72422;SDS011;60413;55.658;37.498;2022-12-07T11:44:29;8.27;;;3.15;;
72422;SDS011;60413;55.658;37.498;2022-12-07T11:47:11;10.60;;;4.25;;
72422;SDS011;60413;55.658;37.498;2022-12-07T11:50:21;10.35;;;3.97;;
72422;SDS011;60413;55.658;37.498;2022-12-07T12:04:13;12.27;;;4.97;;
72422;SDS011;60413;55.658;37.498;2022-12-07T12:07:07;7.22;;;3.25;;
72422;SDS011;60413;55.658;37.498;2022-12-07T12:09:51;14.95;;;5.60;;
72422;SDS011;60413;55.658;37.498;2022-12-07T12:16:55;6.82;;;3.38;;
72422;SDS011;60413;55.658;37.498;2022-12-07T12:20:56;10.60;;;3.38;;
72422;SDS011;60413;55.658;37.498;2022-12-07T12:24:30;12.80;;;5.57;;
72422;SDS011;60413;55.658;37.498;2022-12-07T12:27:32;10.43;;;4.60;;
72422;SDS011;60413;55.658;37.498;2022-12-07T12:30:26;12.93;;;4.53;;
72422;SDS011;60413;55.658;37.498;2022-12-07T12:33:14;13.95;;;5.63;;
72422;SDS011;60413;55.658;37.498;2022-12-07T12:42:44;14.20;;;6.57;;
72422;SDS011;60413;55.658;37.498;2022-12-07T12:45:33;14.00;;;6.57;;
72422;SDS011;60413;55.658;37.498;2022-12-07T12:48:29;16.25;;;7.22;;
72422;SDS011;60413;55.658;37.498;2022-12-07T12:57:01;15.10;;;6.05;;
72422;SDS011;60413;55.658;37.498;2022-12-07T12:59:59;7.57;;;3.78;;
72422;SDS011;60413;55.658;37.498;2022-12-07T13:02:32;13.20;;;6.47;;
72422;SDS011;60413;55.658;37.498;2022-12-07T13:07:51;13.75;;;6.05;;
72422;SDS011;60413;55.658;37.498;2022-12-07T13:10:41;25.23;;;5.72;;
72422;SDS011;60413;55.658;37.498;2022-12-07T13:15:54;13.07;;;5.95;;
72422;SDS011;60413;55.658;37.498;2022-12-07T13:18:41;15.60;;;6.05;;
72422;SDS011;60413;55.658;37.498;2022-12-07T13:23:59;21.45;;;5.30;;
72422;SDS011;60413;55.658;37.498;2022-12-07T13:26:42;4.00;;;1.98;;
72422;SDS011;60413;55.658;37.498;2022-12-07T13:29:20;16.77;;;5.45;;
72422;SDS011;60413;55.658;37.498;2022-12-07T13:37:15;13.13;;;6.50;;
72422;SDS011;60413;55.658;37.498;2022-12-07T13:42:28;16.13;;;5.78;;
72422;SDS011;60413;55.658;37.498;2022-12-07T13:44:59;15.45;;;5.30;;
72422;SDS011;60413;55.658;37.498;2022-12-07T13:47:55;15.55;;;5.85;;
72422;SDS011;60413;55.658;37.498;2022-12-07T13:50:31;31.27;;;4.57;;
72422;SDS011;60413;55.658;37.498;2022-12-07T13:53:00;16.42;;;6.35;;
72422;SDS011;60413;55.658;37.498;2022-12-07T13:55:32;14.38;;;6.28;;
72422;SDS011;60413;55.658;37.498;2022-12-07T13:58:00;10.65;;;4.70;;
72422;SDS011;60413;55.658;37.498;2022-12-07T14:00:28;15.75;;;6.82;;
72422;SDS011;60413;55.658;37.498;2022-12-07T14:03:03;9.55;;;4.70;;
72422;SDS011;60413;55.658;37.498;2022-12-07T14:06:03;12.30;;;6.28;;
72422;SDS011;60413;55.658;37.498;2022-12-07T14:09:06;15.32;;;6.03;;
72422;SDS011;60413;55.658;37.498;2022-12-07T14:11:35;12.55;;;5.45;;
72422;SDS011;60413;55.658;37.498;2022-12-07T14:14:04;11.95;;;5.68;;
72422;SDS011;60413;55.658;37.498;2022-12-07T14:16:34;16.20;;;8.05;;
72422;SDS011;60413;55.658;37.498;2022-12-07T14:19:03;15.40;;;6.93;;
72422;SDS011;60413;55.658;37.498;2022-12-07T14:21:34;15.82;;;8.02;;
72422;SDS011;60413;55.658;37.498;2022-12-07T14:24:14;14.15;;;6.40;;
72422;SDS011;60413;55.658;37.498;2022-12-07T14:26:49;17.27;;;4.80;;
72422;SDS011;60413;55.658;37.498;2022-12-07T14:31:54;14.90;;;5.10;;
72422;SDS011;60413;55.658;37.498;2022-12-07T14:34:21;15.90;;;7.72;;
72422;SDS011;60413;55.658;37.498;2022-12-07T14:36:57;16.52;;;6.65;;
72422;SDS011;60413;55.658;37.498;2022-12-07T14:39:23;13.10;;;5.88;;
72422;SDS011;60413;55.658;37.498;2022-12-07T14:41:49;17.20;;;7.07;;
72422;SDS011;60413;55.658;37.498;2022-12-07T14:44:22;17.65;;;6.15;;
72422;SDS011;60413;55.658;37.498;2022-12-07T14:46:57;11.73;;;5.10;;
72422;SDS011;60413;55.658;37.498;2022-12-07T14:49:28;13.88;;;6.43;;
72422;SDS011;60413;55.658;37.498;2022-12-07T14:54:56;14.20;;;6.00;;
72422;SDS011;60413;55.658;37.498;2022-12-07T14:57:24;17.23;;;5.85;;
72422;SDS011;60413;55.658;37.498;2022-12-07T14:59:52;12.70;;;5.10;;
72422;SDS011;60413;55.658;37.498;2022-12-07T15:02:19;20.50;;;8.32;;
72422;SDS011;60413;55.658;37.498;2022-12-07T15:05:39;14.55;;;5.07;;
72422;SDS011;60413;55.658;37.498;2022-12-07T15:08:10;11.02;;;3.80;;
72422;SDS011;60413;55.658;37.498;2022-12-07T15:10:38;10.82;;;4.55;;
72422;SDS011;60413;55.658;37.498;2022-12-07T15:13:08;13.82;;;6.13;;
72422;SDS011;60413;55.658;37.498;2022-12-07T15:15:59;13.52;;;4.93;;
72422;SDS011;60413;55.658;37.498;2022-12-07T15:18:25;11.65;;;4.47;;
72422;SDS011;60413;55.658;37.498;2022-12-07T15:20:52;20.38;;;7.50;;
72422;SDS011;60413;55.658;37.498;2022-12-07T15:23:21;10.80;;;4.50;;
72422;SDS011;60413;55.658;37.498;2022-12-07T15:25:51;16.33;;;5.88;;
72422;SDS011;60413;55.658;37.498;2022-12-07T15:33:05;11.82;;;4.45;;
72422;SDS011;60413;55.658;37.498;2022-12-07T15:35:32;10.57;;;4.40;;
72422;SDS011;60413;55.658;37.498;2022-12-07T15:37:58;10.05;;;4.63;;
72422;SDS011;60413;55.658;37.498;2022-12-07T15:40:24;14.32;;;6.53;;
72422;SDS011;60413;55.658;37.498;2022-12-07T15:42:51;9.95;;;3.55;;
72422;SDS011;60413;55.658;37.498;2022-12-07T15:45:17;11.70;;;4.97;;
72422;SDS011;60413;55.658;37.498;2022-12-07T15:47:47;16.08;;;6.25;;
72422;SDS011;60413;55.658;37.498;2022-12-07T15:50:17;10.52;;;4.85;;
72422;SDS011;60413;55.658;37.498;2022-12-07T15:52:45;10.32;;;5.50;;
72422;SDS011;60413;55.658;37.498;2022-12-07T15:55:12;21.05;;;6.85;;
72422;SDS011;60413;55.658;37.498;2022-12-07T15:57:39;16.25;;;7.00;;
72422;SDS011;60413;55.658;37.498;2022-12-07T16:00:11;10.43;;;5.45;;
72422;SDS011;60413;55.658;37.498;2022-12-07T16:02:38;6.55;;;3.47;;
72422;SDS011;60413;55.658;37.498;2022-12-07T16:05:04;12.27;;;5.30;;
72422;SDS011;60413;55.658;37.498;2022-12-07T16:08:04;12.32;;;4.70;;
72422;SDS011;60413;55.658;37.498;2022-12-07T16:10:39;17.17;;;6.60;;
72422;SDS011;60413;55.658;37.498;2022-12-07T16:13:18;19.85;;;4.55;;
72422;SDS011;60413;55.658;37.498;2022-12-07T16:15:46;13.85;;;6.43;;
72422;SDS011;60413;55.658;37.498;2022-12-07T16:21:53;11.75;;;4.75;;
72422;SDS011;60413;55.658;37.498;2022-12-07T16:24:19;11.10;;;4.63;;
72422;SDS011;60413;55.658;37.498;2022-12-07T16:30:11;9.95;;;5.15;;
72422;SDS011;60413;55.658;37.498;2022-12-07T16:32:39;14.63;;;5.45;;
72422;SDS011;60413;55.658;37.498;2022-12-07T16:35:06;16.25;;;5.30;;
72422;SDS011;60413;55.658;37.498;2022-12-07T16:37:33;14.95;;;5.03;;
72422;SDS011;60413;55.658;37.498;2022-12-07T16:39:59;12.27;;;4.93;;
72422;SDS011;60413;55.658;37.498;2022-12-07T16:42:33;15.90;;;7.15;;
72422;SDS011;60413;55.658;37.498;2022-12-07T16:45:01;13.95;;;6.07;;
72422;SDS011;60413;55.658;37.498;2022-12-07T16:47:30;8.23;;;3.92;;
72422;SDS011;60413;55.658;37.498;2022-12-07T16:49:57;13.02;;;5.43;;
72422;SDS011;60413;55.658;37.498;2022-12-07T16:52:23;13.90;;;4.80;;
72422;SDS011;60413;55.658;37.498;2022-12-07T16:54:49;10.02;;;4.22;;
72422;SDS011;60413;55.658;37.498;2022-12-07T16:57:18;10.80;;;4.72;;
72422;SDS011;60413;55.658;37.498;2022-12-07T17:04:14;8.20;;;4.10;;
72422;SDS011;60413;55.658;37.498;2022-12-07T17:11:23;15.13;;;5.32;;
72422;SDS011;60413;55.658;37.498;2022-12-07T17:17:58;11.48;;;4.43;;
72422;SDS011;60413;55.658;37.498;2022-12-07T17:21:08;14.55;;;5.25;;
72422;SDS011;60413;55.658;37.498;2022-12-07T17:25:07;11.88;;;4.93;;
72422;SDS011;60413;55.658;37.498;2022-12-07T17:27:35;16.02;;;5.75;;
72422;SDS011;60413;55.658;37.498;2022-12-07T17:30:07;19.08;;;6.13;;
72422;SDS011;60413;55.658;37.498;2022-12-07T17:32:41;9.20;;;3.97;;
72422;SDS011;60413;55.658;37.498;2022-12-07T17:35:17;13.07;;;4.57;;
72422;SDS011;60413;55.658;37.498;2022-12-07T17:37:48;17.63;;;4.60;;
72422;SDS011;60413;55.658;37.498;2022-12-07T18:07:57;12.05;;;5.20;;
72422;SDS011;60413;55.658;37.498;2022-12-07T18:10:46;15.55;;;6.05;;
72422;SDS011;60413;55.658;37.498;2022-12-07T18:13:15;10.77;;;4.32;;
72422;SDS011;60413;55.658;37.498;2022-12-07T18:16:12;13.43;;;6.10;;
72422;SDS011;60413;55.658;37.498;2022-12-07T18:18:48;10.45;;;4.75;;
72422;SDS011;60413;55.658;37.498;2022-12-07T18:21:25;12.23;;;5.00;;
72422;SDS011;60413;55.658;37.498;2022-12-07T18:23:54;9.85;;;4.90;;
72422;SDS011;60413;55.658;37.498;2022-12-07T18:29:48;8.27;;;4.35;;
72422;SDS011;60413;55.658;37.498;2022-12-07T18:32:17;13.50;;;6.20;;
72422;SDS011;60413;55.658;37.498;2022-12-07T18:38:08;11.48;;;5.45;;
72422;SDS011;60413;55.658;37.498;2022-12-07T18:40:37;21.27;;;8.10;;
72422;SDS011;60413;55.658;37.498;2022-12-07T18:43:06;16.13;;;6.95;;
72422;SDS011;60413;55.658;37.498;2022-12-07T18:45:36;16.77;;;7.18;;
72422;SDS011;60413;55.658;37.498;2022-12-07T18:50:59;16.30;;;6.80;;
72422;SDS011;60413;55.658;37.498;2022-12-07T18:53:28;22.95;;;7.95;;
72422;SDS011;60413;55.658;37.498;2022-12-07T18:56:01;15.77;;;5.65;;
72422;SDS011;60413;55.658;37.498;2022-12-07T18:58:31;26.38;;;9.38;;
72422;SDS011;60413;55.658;37.498;2022-12-07T19:00:57;11.15;;;5.43;;
72422;SDS011;60413;55.658;37.498;2022-12-07T19:03:32;19.95;;;7.75;;
72422;SDS011;60413;55.658;37.498;2022-12-07T19:06:03;16.83;;;6.18;;
72422;SDS011;60413;55.658;37.498;2022-12-07T19:08:33;16.45;;;6.35;;
72422;SDS011;60413;55.658;37.498;2022-12-07T19:11:05;15.98;;;6.00;;
72422;SDS011;60413;55.658;37.498;2022-12-07T19:13:56;12.23;;;4.50;;